This is the latest recevied weather packets stored in our database for station/object BMCB-30. If no packets are shown the sender has not sent any weather packets the latest 10 day(s).
| Time | Temp. | Humidity | Pressure | Rain* | Wind** | Luminosity | Snow |
|---|---|---|---|---|---|---|---|
| 1778019649 | 9.44° C | 10% | 1009.5 hPa | 1.02 mm | - | - | - |
| 1778019050 | 9.44° C | 10% | 1009.5 hPa | 0.76 mm | - | - | - |
| 1778018448 | 9.44° C | 10% | 1009.5 hPa | 0.51 mm | - | - | - |
| 1778016649 | 9.44° C | 10% | 1009.7 hPa | 0.51 mm | - | - | - |
| 1778015447 | 9.44° C | 10% | 1009.7 hPa | 0.51 mm | - | - | - |
| 1778014249 | 10° C | 10% | 1009.7 hPa | 0.51 mm | - | - | - |
| 1778013046 | 10° C | 10% | 1009.8 hPa | 0.51 mm | - | - | - |
| 1778012451 | 10° C | 10% | 1009.7 hPa | 0.76 mm | - | - | - |
| 1778011248 | 10° C | 10% | 1009.6 hPa | 1.02 mm | - | - | - |
| 1778008247 | 10° C | 10% | 1009.3 hPa | 1.27 mm | - | - | - |
| 1778007648 | 10° C | 10% | 1009.3 hPa | 1.02 mm | - | - | - |
| 1778002247 | 10.56° C | 99% | 1009.3 hPa | 0.76 mm | - | 20 W/m² | - |
| 1778001642 | 10.56° C | 99% | 1009.3 hPa | 0.51 mm | - | 28 W/m² | - |
| 1777999848 | 10.56° C | 99% | 1009.4 hPa | 0.51 mm | - | 30 W/m² | - |
| 1777992044 | 11.67° C | 94% | 1009.6 hPa | 0 mm | - | 66 W/m² | - |
| 1777989655 | 12.78° C | 93% | 1009.7 hPa | 0 mm | - | 110 W/m² | - |
| 1777986643 | 13.33° C | 92% | 1009.8 hPa | 0 mm | - | 102 W/m² | - |
| 1777979445 | 15.56° C | 86% | 1010.1 hPa | 0 mm | - | 382 W/m² | - |
| 1777977645 | 14.44° C | 89% | 1010.5 hPa | 0 mm | - | 110 W/m² | - |
| 1777975244 | 14.44° C | 89% | 1010.5 hPa | 0 mm | - | 226 W/m² | - |
| 1777972249 | 14.44° C | 90% | 1010.6 hPa | 0 mm | - | 322 W/m² | - |
| 1777969847 | 13.89° C | 93% | 1010.8 hPa | 0 mm | - | 158 W/m² | - |
| 1777966848 | 12.78° C | 10% | 1011 hPa | 0 mm | - | - | - |
| 1777957845 | 10.56° C | 10% | 1011.4 hPa | 0 mm | - | - | - |
| 1777956647 | 10° C | 10% | 1011.4 hPa | 0 mm | - | - | - |
* Rain latest hour (hover to see other rain measurements)
** Current wind speed in m/s (hover to see current wind gust speed)